sensor_id;sensor_type;location;lat;lon;timestamp;P1;durP1;ratioP1;P2;durP2;ratioP2
10461;SDS011;5278;42.656;23.374;2023-04-23T00:01:47;5.00;;;4.03;;
10461;SDS011;5278;42.656;23.374;2023-04-23T00:04:14;5.70;;;4.63;;
10461;SDS011;5278;42.656;23.374;2023-04-23T00:06:42;6.20;;;4.57;;
10461;SDS011;5278;42.656;23.374;2023-04-23T00:09:14;4.40;;;4.00;;
10461;SDS011;5278;42.656;23.374;2023-04-23T00:11:42;4.90;;;4.07;;
10461;SDS011;5278;42.656;23.374;2023-04-23T00:14:09;4.83;;;4.40;;
10461;SDS011;5278;42.656;23.374;2023-04-23T00:16:37;4.87;;;4.33;;
10461;SDS011;5278;42.656;23.374;2023-04-23T00:19:05;6.97;;;4.07;;
10461;SDS011;5278;42.656;23.374;2023-04-23T00:21:32;4.53;;;4.10;;
10461;SDS011;5278;42.656;23.374;2023-04-23T00:23:59;4.83;;;4.10;;
10461;SDS011;5278;42.656;23.374;2023-04-23T00:26:27;5.77;;;4.50;;
10461;SDS011;5278;42.656;23.374;2023-04-23T00:28:54;5.07;;;4.20;;
10461;SDS011;5278;42.656;23.374;2023-04-23T00:31:21;4.97;;;4.20;;
10461;SDS011;5278;42.656;23.374;2023-04-23T00:33:48;5.17;;;4.27;;
10461;SDS011;5278;42.656;23.374;2023-04-23T00:36:15;5.93;;;4.50;;
10461;SDS011;5278;42.656;23.374;2023-04-23T00:38:42;4.73;;;4.00;;
10461;SDS011;5278;42.656;23.374;2023-04-23T00:41:09;4.33;;;3.93;;
10461;SDS011;5278;42.656;23.374;2023-04-23T00:43:38;4.43;;;4.03;;
10461;SDS011;5278;42.656;23.374;2023-04-23T00:46:05;4.40;;;3.80;;
10461;SDS011;5278;42.656;23.374;2023-04-23T00:48:32;6.23;;;4.90;;
10461;SDS011;5278;42.656;23.374;2023-04-23T00:51:02;5.03;;;4.43;;
10461;SDS011;5278;42.656;23.374;2023-04-23T00:53:30;4.83;;;4.33;;
10461;SDS011;5278;42.656;23.374;2023-04-23T00:55:58;4.27;;;3.87;;
10461;SDS011;5278;42.656;23.374;2023-04-23T00:58:27;7.73;;;4.70;;
10461;SDS011;5278;42.656;23.374;2023-04-23T01:00:55;4.40;;;4.00;;
10461;SDS011;5278;42.656;23.374;2023-04-23T01:03:23;7.77;;;4.23;;
10461;SDS011;5278;42.656;23.374;2023-04-23T01:05:51;4.57;;;3.93;;
10461;SDS011;5278;42.656;23.374;2023-04-23T01:08:18;6.97;;;4.00;;
10461;SDS011;5278;42.656;23.374;2023-04-23T01:10:48;6.53;;;4.40;;
10461;SDS011;5278;42.656;23.374;2023-04-23T01:13:16;4.80;;;4.10;;
10461;SDS011;5278;42.656;23.374;2023-04-23T01:15:42;5.20;;;4.70;;
10461;SDS011;5278;42.656;23.374;2023-04-23T01:18:11;6.70;;;4.63;;
10461;SDS011;5278;42.656;23.374;2023-04-23T01:20:39;6.50;;;4.00;;
10461;SDS011;5278;42.656;23.374;2023-04-23T01:23:08;6.43;;;4.50;;
10461;SDS011;5278;42.656;23.374;2023-04-23T01:25:35;5.03;;;4.53;;
10461;SDS011;5278;42.656;23.374;2023-04-23T01:28:03;5.70;;;4.50;;
10461;SDS011;5278;42.656;23.374;2023-04-23T01:30:31;4.57;;;4.10;;
10461;SDS011;5278;42.656;23.374;2023-04-23T01:32:59;6.43;;;4.67;;
10461;SDS011;5278;42.656;23.374;2023-04-23T01:35:27;6.03;;;4.20;;
10461;SDS011;5278;42.656;23.374;2023-04-23T01:37:54;5.57;;;5.07;;
10461;SDS011;5278;42.656;23.374;2023-04-23T01:40:24;9.30;;;5.00;;
10461;SDS011;5278;42.656;23.374;2023-04-23T01:42:50;5.37;;;4.47;;
10461;SDS011;5278;42.656;23.374;2023-04-23T01:45:17;5.57;;;4.47;;
10461;SDS011;5278;42.656;23.374;2023-04-23T01:47:45;5.47;;;4.40;;
10461;SDS011;5278;42.656;23.374;2023-04-23T01:50:12;4.57;;;4.13;;
10461;SDS011;5278;42.656;23.374;2023-04-23T01:52:39;4.73;;;4.10;;
10461;SDS011;5278;42.656;23.374;2023-04-23T01:55:08;6.87;;;4.57;;
10461;SDS011;5278;42.656;23.374;2023-04-23T01:57:37;5.63;;;5.03;;
10461;SDS011;5278;42.656;23.374;2023-04-23T02:00:06;5.67;;;5.07;;
10461;SDS011;5278;42.656;23.374;2023-04-23T02:02:35;7.40;;;5.37;;
10461;SDS011;5278;42.656;23.374;2023-04-23T02:05:03;7.20;;;4.70;;
10461;SDS011;5278;42.656;23.374;2023-04-23T02:07:35;4.97;;;4.23;;
10461;SDS011;5278;42.656;23.374;2023-04-23T02:10:02;6.17;;;5.40;;
10461;SDS011;5278;42.656;23.374;2023-04-23T02:12:29;5.30;;;4.80;;
10461;SDS011;5278;42.656;23.374;2023-04-23T02:14:57;5.43;;;4.60;;
10461;SDS011;5278;42.656;23.374;2023-04-23T02:17:25;8.47;;;5.03;;
10461;SDS011;5278;42.656;23.374;2023-04-23T02:19:53;7.23;;;4.97;;
10461;SDS011;5278;42.656;23.374;2023-04-23T02:22:21;7.67;;;4.77;;
10461;SDS011;5278;42.656;23.374;2023-04-23T02:24:50;5.80;;;4.37;;
10461;SDS011;5278;42.656;23.374;2023-04-23T02:27:17;6.00;;;4.77;;
10461;SDS011;5278;42.656;23.374;2023-04-23T02:29:44;5.93;;;4.93;;
10461;SDS011;5278;42.656;23.374;2023-04-23T02:32:13;6.43;;;5.00;;
10461;SDS011;5278;42.656;23.374;2023-04-23T02:34:40;8.23;;;6.27;;
10461;SDS011;5278;42.656;23.374;2023-04-23T02:37:07;9.27;;;5.00;;
10461;SDS011;5278;42.656;23.374;2023-04-23T02:39:34;6.30;;;5.20;;
10461;SDS011;5278;42.656;23.374;2023-04-23T02:42:03;8.23;;;4.87;;
10461;SDS011;5278;42.656;23.374;2023-04-23T02:44:29;5.67;;;4.93;;
10461;SDS011;5278;42.656;23.374;2023-04-23T02:46:56;5.47;;;4.70;;
10461;SDS011;5278;42.656;23.374;2023-04-23T02:49:25;5.97;;;4.77;;
10461;SDS011;5278;42.656;23.374;2023-04-23T02:51:52;5.50;;;4.70;;
10461;SDS011;5278;42.656;23.374;2023-04-23T02:54:18;5.60;;;4.87;;
10461;SDS011;5278;42.656;23.374;2023-04-23T02:56:45;7.77;;;5.67;;
10461;SDS011;5278;42.656;23.374;2023-04-23T02:59:12;5.80;;;5.20;;
10461;SDS011;5278;42.656;23.374;2023-04-23T03:01:39;6.63;;;4.87;;
10461;SDS011;5278;42.656;23.374;2023-04-23T03:04:06;5.33;;;4.83;;
10461;SDS011;5278;42.656;23.374;2023-04-23T03:06:35;8.30;;;5.33;;
10461;SDS011;5278;42.656;23.374;2023-04-23T03:09:02;6.27;;;5.23;;
10461;SDS011;5278;42.656;23.374;2023-04-23T03:11:29;5.43;;;4.93;;
10461;SDS011;5278;42.656;23.374;2023-04-23T03:13:56;6.67;;;5.43;;
10461;SDS011;5278;42.656;23.374;2023-04-23T03:16:23;6.13;;;5.10;;
10461;SDS011;5278;42.656;23.374;2023-04-23T03:18:51;6.73;;;5.20;;
10461;SDS011;5278;42.656;23.374;2023-04-23T03:21:17;7.03;;;5.03;;
10461;SDS011;5278;42.656;23.374;2023-04-23T03:23:46;10.13;;;5.83;;
10461;SDS011;5278;42.656;23.374;2023-04-23T03:26:12;6.47;;;5.83;;
10461;SDS011;5278;42.656;23.374;2023-04-23T03:28:39;7.90;;;6.27;;
10461;SDS011;5278;42.656;23.374;2023-04-23T03:31:06;6.40;;;5.80;;
10461;SDS011;5278;42.656;23.374;2023-04-23T03:33:33;9.67;;;6.70;;
10461;SDS011;5278;42.656;23.374;2023-04-23T03:36:01;7.27;;;6.53;;
10461;SDS011;5278;42.656;23.374;2023-04-23T03:38:28;8.60;;;6.63;;
10461;SDS011;5278;42.656;23.374;2023-04-23T03:40:56;7.03;;;5.33;;
10461;SDS011;5278;42.656;23.374;2023-04-23T03:43:23;6.47;;;5.87;;
10461;SDS011;5278;42.656;23.374;2023-04-23T03:45:50;8.70;;;6.03;;
10461;SDS011;5278;42.656;23.374;2023-04-23T03:48:16;7.40;;;5.73;;
10461;SDS011;5278;42.656;23.374;2023-04-23T03:50:44;8.57;;;5.77;;
10461;SDS011;5278;42.656;23.374;2023-04-23T03:53:11;7.73;;;6.07;;
10461;SDS011;5278;42.656;23.374;2023-04-23T03:55:38;6.70;;;6.10;;
10461;SDS011;5278;42.656;23.374;2023-04-23T03:58:06;6.10;;;5.40;;
10461;SDS011;5278;42.656;23.374;2023-04-23T04:00:33;6.23;;;5.43;;
10461;SDS011;5278;42.656;23.374;2023-04-23T04:03:00;8.03;;;5.87;;
10461;SDS011;5278;42.656;23.374;2023-04-23T04:05:28;6.67;;;5.67;;
10461;SDS011;5278;42.656;23.374;2023-04-23T04:07:55;6.53;;;5.27;;
10461;SDS011;5278;42.656;23.374;2023-04-23T04:10:21;6.20;;;5.30;;
10461;SDS011;5278;42.656;23.374;2023-04-23T04:12:48;6.80;;;5.93;;
10461;SDS011;5278;42.656;23.374;2023-04-23T04:15:17;6.90;;;6.20;;
10461;SDS011;5278;42.656;23.374;2023-04-23T04:17:45;7.87;;;6.20;;
10461;SDS011;5278;42.656;23.374;2023-04-23T04:20:12;8.43;;;6.30;;
10461;SDS011;5278;42.656;23.374;2023-04-23T04:22:39;8.50;;;5.90;;
10461;SDS011;5278;42.656;23.374;2023-04-23T04:25:06;6.17;;;5.50;;
10461;SDS011;5278;42.656;23.374;2023-04-23T04:27:34;6.73;;;5.90;;
10461;SDS011;5278;42.656;23.374;2023-04-23T04:30:01;8.97;;;6.50;;
10461;SDS011;5278;42.656;23.374;2023-04-23T04:32:31;6.73;;;6.00;;
10461;SDS011;5278;42.656;23.374;2023-04-23T04:34:58;6.67;;;5.13;;
10461;SDS011;5278;42.656;23.374;2023-04-23T04:37:25;7.63;;;6.10;;
10461;SDS011;5278;42.656;23.374;2023-04-23T04:39:52;6.70;;;5.30;;
10461;SDS011;5278;42.656;23.374;2023-04-23T04:42:19;5.27;;;4.77;;
10461;SDS011;5278;42.656;23.374;2023-04-23T04:44:46;5.10;;;4.60;;
10461;SDS011;5278;42.656;23.374;2023-04-23T04:47:12;6.83;;;5.40;;
10461;SDS011;5278;42.656;23.374;2023-04-23T04:49:41;6.93;;;5.40;;
10461;SDS011;5278;42.656;23.374;2023-04-23T04:52:09;6.53;;;5.20;;
10461;SDS011;5278;42.656;23.374;2023-04-23T04:54:36;6.83;;;5.00;;
10461;SDS011;5278;42.656;23.374;2023-04-23T04:57:03;7.37;;;5.13;;
10461;SDS011;5278;42.656;23.374;2023-04-23T04:59:30;5.33;;;4.83;;
10461;SDS011;5278;42.656;23.374;2023-04-23T05:01:57;8.37;;;4.90;;
10461;SDS011;5278;42.656;23.374;2023-04-23T05:04:24;9.70;;;4.93;;
10461;SDS011;5278;42.656;23.374;2023-04-23T05:06:53;9.07;;;6.13;;
10461;SDS011;5278;42.656;23.374;2023-04-23T05:09:20;12.13;;;5.30;;
10461;SDS011;5278;42.656;23.374;2023-04-23T05:11:47;8.33;;;5.37;;
10461;SDS011;5278;42.656;23.374;2023-04-23T05:14:14;6.30;;;5.10;;
10461;SDS011;5278;42.656;23.374;2023-04-23T05:16:41;7.77;;;5.60;;
10461;SDS011;5278;42.656;23.374;2023-04-23T05:19:08;6.03;;;5.10;;
10461;SDS011;5278;42.656;23.374;2023-04-23T05:21:34;9.13;;;6.83;;
10461;SDS011;5278;42.656;23.374;2023-04-23T05:24:03;5.43;;;4.90;;
10461;SDS011;5278;42.656;23.374;2023-04-23T05:26:30;6.47;;;4.40;;
10461;SDS011;5278;42.656;23.374;2023-04-23T05:28:57;5.30;;;4.80;;
10461;SDS011;5278;42.656;23.374;2023-04-23T05:31:24;5.60;;;5.00;;
10461;SDS011;5278;42.656;23.374;2023-04-23T05:33:51;7.87;;;4.60;;
10461;SDS011;5278;42.656;23.374;2023-04-23T05:36:18;8.40;;;5.07;;
10461;SDS011;5278;42.656;23.374;2023-04-23T05:38:46;7.13;;;5.47;;
10461;SDS011;5278;42.656;23.374;2023-04-23T05:41:14;10.23;;;5.60;;
10461;SDS011;5278;42.656;23.374;2023-04-23T05:43:41;8.70;;;5.30;;
10461;SDS011;5278;42.656;23.374;2023-04-23T05:46:08;11.03;;;5.87;;
10461;SDS011;5278;42.656;23.374;2023-04-23T05:48:35;10.33;;;6.20;;
10461;SDS011;5278;42.656;23.374;2023-04-23T05:51:02;5.97;;;5.13;;
10461;SDS011;5278;42.656;23.374;2023-04-23T05:53:29;9.00;;;5.43;;
10461;SDS011;5278;42.656;23.374;2023-04-23T05:55:56;9.27;;;6.73;;
10461;SDS011;5278;42.656;23.374;2023-04-23T05:58:24;6.03;;;5.27;;
10461;SDS011;5278;42.656;23.374;2023-04-23T06:00:51;8.90;;;5.70;;
10461;SDS011;5278;42.656;23.374;2023-04-23T06:03:18;9.13;;;6.43;;
10461;SDS011;5278;42.656;23.374;2023-04-23T06:05:45;8.13;;;5.20;;
10461;SDS011;5278;42.656;23.374;2023-04-23T06:08:12;6.47;;;4.90;;
10461;SDS011;5278;42.656;23.374;2023-04-23T06:10:39;8.20;;;4.90;;
10461;SDS011;5278;42.656;23.374;2023-04-23T06:13:06;5.10;;;4.43;;
10461;SDS011;5278;42.656;23.374;2023-04-23T06:15:34;5.10;;;4.47;;
10461;SDS011;5278;42.656;23.374;2023-04-23T06:18:01;9.63;;;6.60;;
10461;SDS011;5278;42.656;23.374;2023-04-23T06:20:28;17.77;;;10.30;;
10461;SDS011;5278;42.656;23.374;2023-04-23T06:22:55;7.03;;;5.47;;
10461;SDS011;5278;42.656;23.374;2023-04-23T06:25:22;8.67;;;5.93;;
10461;SDS011;5278;42.656;23.374;2023-04-23T06:27:49;7.33;;;5.60;;
10461;SDS011;5278;42.656;23.374;2023-04-23T06:30:16;6.83;;;5.60;;
10461;SDS011;5278;42.656;23.374;2023-04-23T06:32:45;8.73;;;6.30;;
10461;SDS011;5278;42.656;23.374;2023-04-23T06:35:11;6.23;;;5.33;;
10461;SDS011;5278;42.656;23.374;2023-04-23T06:37:38;6.27;;;5.13;;
10461;SDS011;5278;42.656;23.374;2023-04-23T06:40:05;9.27;;;7.67;;
10461;SDS011;5278;42.656;23.374;2023-04-23T06:42:33;11.63;;;7.03;;
10461;SDS011;5278;42.656;23.374;2023-04-23T06:45:00;6.20;;;5.50;;
10461;SDS011;5278;42.656;23.374;2023-04-23T06:47:28;6.83;;;5.07;;
10461;SDS011;5278;42.656;23.374;2023-04-23T06:49:56;7.63;;;6.00;;
10461;SDS011;5278;42.656;23.374;2023-04-23T06:52:24;10.27;;;9.13;;
10461;SDS011;5278;42.656;23.374;2023-04-23T06:54:51;7.17;;;6.07;;
10461;SDS011;5278;42.656;23.374;2023-04-23T06:57:17;6.93;;;5.43;;
10461;SDS011;5278;42.656;23.374;2023-04-23T06:59:46;8.67;;;5.60;;
10461;SDS011;5278;42.656;23.374;2023-04-23T07:02:12;5.77;;;5.17;;
10461;SDS011;5278;42.656;23.374;2023-04-23T07:04:39;7.43;;;5.80;;
10461;SDS011;5278;42.656;23.374;2023-04-23T07:07:08;7.57;;;4.63;;
10461;SDS011;5278;42.656;23.374;2023-04-23T07:09:34;9.47;;;5.33;;
10461;SDS011;5278;42.656;23.374;2023-04-23T07:12:01;5.67;;;5.20;;
10461;SDS011;5278;42.656;23.374;2023-04-23T07:14:28;5.37;;;4.63;;
10461;SDS011;5278;42.656;23.374;2023-04-23T07:16:55;5.20;;;4.80;;
10461;SDS011;5278;42.656;23.374;2023-04-23T07:19:23;8.27;;;4.80;;
10461;SDS011;5278;42.656;23.374;2023-04-23T07:21:51;10.57;;;8.83;;
10461;SDS011;5278;42.656;23.374;2023-04-23T07:24:20;9.80;;;7.80;;
10461;SDS011;5278;42.656;23.374;2023-04-23T07:26:46;7.33;;;5.33;;
10461;SDS011;5278;42.656;23.374;2023-04-23T07:29:13;9.17;;;5.67;;
10461;SDS011;5278;42.656;23.374;2023-04-23T07:31:40;6.70;;;6.00;;
10461;SDS011;5278;42.656;23.374;2023-04-23T07:34:07;8.93;;;5.37;;
10461;SDS011;5278;42.656;23.374;2023-04-23T07:36:34;8.00;;;5.13;;
10461;SDS011;5278;42.656;23.374;2023-04-23T07:39:01;6.27;;;5.30;;
10461;SDS011;5278;42.656;23.374;2023-04-23T07:41:30;5.30;;;4.80;;
10461;SDS011;5278;42.656;23.374;2023-04-23T07:43:57;7.20;;;6.23;;
10461;SDS011;5278;42.656;23.374;2023-04-23T07:46:25;6.33;;;5.37;;
10461;SDS011;5278;42.656;23.374;2023-04-23T07:48:51;6.97;;;6.10;;
10461;SDS011;5278;42.656;23.374;2023-04-23T07:51:19;5.97;;;5.37;;
10461;SDS011;5278;42.656;23.374;2023-04-23T07:53:50;10.20;;;7.17;;
10461;SDS011;5278;42.656;23.374;2023-04-23T07:56:18;9.50;;;5.43;;
10461;SDS011;5278;42.656;23.374;2023-04-23T07:58:48;10.53;;;6.93;;
10461;SDS011;5278;42.656;23.374;2023-04-23T08:01:14;8.00;;;6.27;;
10461;SDS011;5278;42.656;23.374;2023-04-23T08:03:42;9.20;;;6.07;;
10461;SDS011;5278;42.656;23.374;2023-04-23T08:06:09;9.47;;;6.10;;
10461;SDS011;5278;42.656;23.374;2023-04-23T08:08:37;6.20;;;5.53;;
10461;SDS011;5278;42.656;23.374;2023-04-23T08:11:04;8.60;;;5.93;;
10461;SDS011;5278;42.656;23.374;2023-04-23T08:13:31;8.23;;;5.97;;
10461;SDS011;5278;42.656;23.374;2023-04-23T08:15:59;7.50;;;5.60;;
10461;SDS011;5278;42.656;23.374;2023-04-23T08:18:26;6.93;;;5.20;;
10461;SDS011;5278;42.656;23.374;2023-04-23T08:20:53;8.33;;;5.63;;
10461;SDS011;5278;42.656;23.374;2023-04-23T08:23:20;8.90;;;5.33;;
10461;SDS011;5278;42.656;23.374;2023-04-23T08:25:47;5.80;;;4.90;;
10461;SDS011;5278;42.656;23.374;2023-04-23T08:28:14;8.70;;;5.30;;
10461;SDS011;5278;42.656;23.374;2023-04-23T08:30:41;5.83;;;4.80;;
10461;SDS011;5278;42.656;23.374;2023-04-23T08:33:09;5.30;;;4.60;;
10461;SDS011;5278;42.656;23.374;2023-04-23T08:35:36;6.50;;;5.43;;
10461;SDS011;5278;42.656;23.374;2023-04-23T08:38:03;5.50;;;4.93;;
10461;SDS011;5278;42.656;23.374;2023-04-23T08:40:30;8.10;;;5.67;;
10461;SDS011;5278;42.656;23.374;2023-04-23T08:43:00;6.07;;;5.07;;
10461;SDS011;5278;42.656;23.374;2023-04-23T08:45:29;7.03;;;5.00;;
10461;SDS011;5278;42.656;23.374;2023-04-23T08:47:57;5.77;;;5.27;;
10461;SDS011;5278;42.656;23.374;2023-04-23T08:50:26;5.97;;;5.47;;
10461;SDS011;5278;42.656;23.374;2023-04-23T08:52:56;7.37;;;5.00;;
10461;SDS011;5278;42.656;23.374;2023-04-23T08:55:23;9.07;;;7.40;;
10461;SDS011;5278;42.656;23.374;2023-04-23T08:57:50;17.03;;;10.67;;
10461;SDS011;5278;42.656;23.374;2023-04-23T09:00:18;10.07;;;8.63;;
10461;SDS011;5278;42.656;23.374;2023-04-23T09:02:47;7.53;;;5.60;;
10461;SDS011;5278;42.656;23.374;2023-04-23T09:05:14;6.67;;;5.47;;
10461;SDS011;5278;42.656;23.374;2023-04-23T09:07:43;6.90;;;5.00;;
10461;SDS011;5278;42.656;23.374;2023-04-23T09:10:10;8.07;;;5.00;;
10461;SDS011;5278;42.656;23.374;2023-04-23T09:12:39;6.30;;;5.68;;
10461;SDS011;5278;42.656;23.374;2023-04-23T09:15:07;8.40;;;4.78;;
10461;SDS011;5278;42.656;23.374;2023-04-23T09:17:37;7.53;;;5.93;;
10461;SDS011;5278;42.656;23.374;2023-04-23T09:20:06;5.27;;;4.60;;
10461;SDS011;5278;42.656;23.374;2023-04-23T09:22:38;7.63;;;4.93;;
10461;SDS011;5278;42.656;23.374;2023-04-23T09:25:11;10.63;;;5.53;;
10461;SDS011;5278;42.656;23.374;2023-04-23T09:27:39;6.87;;;6.10;;
10461;SDS011;5278;42.656;23.374;2023-04-23T09:30:07;5.80;;;5.30;;
10461;SDS011;5278;42.656;23.374;2023-04-23T09:32:35;10.13;;;8.90;;
10461;SDS011;5278;42.656;23.374;2023-04-23T09:35:04;8.57;;;5.67;;
10461;SDS011;5278;42.656;23.374;2023-04-23T09:37:32;6.27;;;4.80;;
10461;SDS011;5278;42.656;23.374;2023-04-23T09:40:02;5.67;;;4.53;;
10461;SDS011;5278;42.656;23.374;2023-04-23T09:42:33;6.00;;;5.23;;
10461;SDS011;5278;42.656;23.374;2023-04-23T09:45:01;5.63;;;4.97;;
10461;SDS011;5278;42.656;23.374;2023-04-23T09:47:30;7.13;;;4.90;;
10461;SDS011;5278;42.656;23.374;2023-04-23T09:49:59;6.10;;;5.47;;
10461;SDS011;5278;42.656;23.374;2023-04-23T09:52:26;4.97;;;4.10;;
10461;SDS011;5278;42.656;23.374;2023-04-23T09:54:55;4.97;;;4.20;;
10461;SDS011;5278;42.656;23.374;2023-04-23T09:57:24;5.17;;;4.73;;
10461;SDS011;5278;42.656;23.374;2023-04-23T09:59:51;7.57;;;4.63;;
10461;SDS011;5278;42.656;23.374;2023-04-23T10:02:25;5.13;;;4.72;;
10461;SDS011;5278;42.656;23.374;2023-04-23T10:04:53;4.50;;;4.10;;
10461;SDS011;5278;42.656;23.374;2023-04-23T10:07:20;5.85;;;4.68;;
10461;SDS011;5278;42.656;23.374;2023-04-23T10:09:49;5.88;;;4.22;;
10461;SDS011;5278;42.656;23.374;2023-04-23T10:12:16;6.50;;;5.13;;
10461;SDS011;5278;42.656;23.374;2023-04-23T10:14:45;4.43;;;4.03;;
10461;SDS011;5278;42.656;23.374;2023-04-23T10:17:13;4.70;;;4.10;;
10461;SDS011;5278;42.656;23.374;2023-04-23T10:19:40;4.63;;;4.10;;
10461;SDS011;5278;42.656;23.374;2023-04-23T10:22:09;4.82;;;4.13;;
10461;SDS011;5278;42.656;23.374;2023-04-23T10:24:38;5.43;;;4.75;;
10461;SDS011;5278;42.656;23.374;2023-04-23T10:27:08;5.38;;;4.70;;
10461;SDS011;5278;42.656;23.374;2023-04-23T10:29:37;5.50;;;4.43;;
10461;SDS011;5278;42.656;23.374;2023-04-23T10:32:06;5.05;;;4.65;;
10461;SDS011;5278;42.656;23.374;2023-04-23T10:34:33;6.60;;;4.70;;
10461;SDS011;5278;42.656;23.374;2023-04-23T10:37:00;5.87;;;5.23;;
10461;SDS011;5278;42.656;23.374;2023-04-23T10:39:29;6.67;;;4.60;;
10461;SDS011;5278;42.656;23.374;2023-04-23T10:41:58;6.33;;;4.83;;
10461;SDS011;5278;42.656;23.374;2023-04-23T10:44:32;5.53;;;4.40;;
10461;SDS011;5278;42.656;23.374;2023-04-23T10:46:59;5.00;;;4.50;;
10461;SDS011;5278;42.656;23.374;2023-04-23T10:49:30;6.97;;;4.43;;
10461;SDS011;5278;42.656;23.374;2023-04-23T10:51:58;4.83;;;4.33;;
10461;SDS011;5278;42.656;23.374;2023-04-23T10:54:29;6.57;;;5.18;;
10461;SDS011;5278;42.656;23.374;2023-04-23T10:56:58;6.38;;;4.13;;
10461;SDS011;5278;42.656;23.374;2023-04-23T10:59:27;5.05;;;4.35;;
10461;SDS011;5278;42.656;23.374;2023-04-23T11:01:56;7.00;;;5.03;;
10461;SDS011;5278;42.656;23.374;2023-04-23T11:04:24;5.10;;;4.63;;
10461;SDS011;5278;42.656;23.374;2023-04-23T11:06:55;5.15;;;4.30;;
10461;SDS011;5278;42.656;23.374;2023-04-23T11:09:30;5.18;;;4.68;;
10461;SDS011;5278;42.656;23.374;2023-04-23T11:11:58;9.02;;;6.72;;
10461;SDS011;5278;42.656;23.374;2023-04-23T11:14:32;12.38;;;8.20;;
10461;SDS011;5278;42.656;23.374;2023-04-23T11:17:03;8.85;;;5.60;;
10461;SDS011;5278;42.656;23.374;2023-04-23T11:19:33;4.60;;;4.15;;
10461;SDS011;5278;42.656;23.374;2023-04-23T11:22:03;4.75;;;4.35;;
10461;SDS011;5278;42.656;23.374;2023-04-23T11:24:32;6.78;;;6.07;;
10461;SDS011;5278;42.656;23.374;2023-04-23T11:27:06;4.93;;;4.43;;
10461;SDS011;5278;42.656;23.374;2023-04-23T11:29:35;5.23;;;4.80;;
10461;SDS011;5278;42.656;23.374;2023-04-23T11:32:03;4.50;;;4.00;;
10461;SDS011;5278;42.656;23.374;2023-04-23T11:34:34;6.03;;;4.10;;
10461;SDS011;5278;42.656;23.374;2023-04-23T11:37:03;5.73;;;5.13;;
10461;SDS011;5278;42.656;23.374;2023-04-23T11:39:31;4.43;;;4.03;;
10461;SDS011;5278;42.656;23.374;2023-04-23T11:41:58;4.67;;;4.27;;
10461;SDS011;5278;42.656;23.374;2023-04-23T11:44:27;5.07;;;4.67;;
10461;SDS011;5278;42.656;23.374;2023-04-23T11:46:57;5.97;;;4.33;;
10461;SDS011;5278;42.656;23.374;2023-04-23T11:49:26;5.63;;;4.70;;
10461;SDS011;5278;42.656;23.374;2023-04-23T11:51:53;5.73;;;4.10;;
10461;SDS011;5278;42.656;23.374;2023-04-23T11:54:26;7.87;;;5.30;;
10461;SDS011;5278;42.656;23.374;2023-04-23T11:56:53;4.10;;;3.80;;
10461;SDS011;5278;42.656;23.374;2023-04-23T11:59:22;5.50;;;4.23;;
10461;SDS011;5278;42.656;23.374;2023-04-23T12:01:50;6.37;;;5.77;;
10461;SDS011;5278;42.656;23.374;2023-04-23T12:04:19;7.57;;;5.17;;
10461;SDS011;5278;42.656;23.374;2023-04-23T12:06:48;5.60;;;4.53;;
10461;SDS011;5278;42.656;23.374;2023-04-23T12:09:16;5.53;;;3.97;;
10461;SDS011;5278;42.656;23.374;2023-04-23T12:11:46;4.67;;;3.40;;
10461;SDS011;5278;42.656;23.374;2023-04-23T12:14:15;4.40;;;3.70;;
10461;SDS011;5278;42.656;23.374;2023-04-23T12:16:43;5.13;;;3.80;;
10461;SDS011;5278;42.656;23.374;2023-04-23T12:19:12;4.03;;;3.60;;
10461;SDS011;5278;42.656;23.374;2023-04-23T12:21:46;4.83;;;3.43;;
10461;SDS011;5278;42.656;23.374;2023-04-23T12:24:14;4.30;;;3.90;;
10461;SDS011;5278;42.656;23.374;2023-04-23T12:26:41;4.67;;;3.80;;
10461;SDS011;5278;42.656;23.374;2023-04-23T12:29:11;7.97;;;3.80;;
10461;SDS011;5278;42.656;23.374;2023-04-23T12:31:38;3.83;;;3.43;;
10461;SDS011;5278;42.656;23.374;2023-04-23T12:34:06;5.77;;;4.20;;
10461;SDS011;5278;42.656;23.374;2023-04-23T12:36:34;5.70;;;3.97;;
10461;SDS011;5278;42.656;23.374;2023-04-23T12:39:21;3.93;;;3.47;;
10461;SDS011;5278;42.656;23.374;2023-04-23T12:41:50;6.17;;;4.80;;
10461;SDS011;5278;42.656;23.374;2023-04-23T12:44:20;5.70;;;3.57;;
10461;SDS011;5278;42.656;23.374;2023-04-23T12:46:54;3.10;;;2.90;;
10461;SDS011;5278;42.656;23.374;2023-04-23T12:49:22;4.83;;;4.00;;
10461;SDS011;5278;42.656;23.374;2023-04-23T12:51:48;4.50;;;3.73;;
10461;SDS011;5278;42.656;23.374;2023-04-23T12:54:16;5.97;;;3.97;;
10461;SDS011;5278;42.656;23.374;2023-04-23T12:56:43;6.17;;;4.90;;
10461;SDS011;5278;42.656;23.374;2023-04-23T12:59:10;7.03;;;5.37;;
10461;SDS011;5278;42.656;23.374;2023-04-23T13:01:38;3.70;;;3.40;;
10461;SDS011;5278;42.656;23.374;2023-04-23T13:04:05;4.60;;;3.77;;
10461;SDS011;5278;42.656;23.374;2023-04-23T13:06:32;6.60;;;5.67;;
10461;SDS011;5278;42.656;23.374;2023-04-23T13:09:00;4.77;;;3.80;;
10461;SDS011;5278;42.656;23.374;2023-04-23T13:11:29;5.00;;;3.33;;
10461;SDS011;5278;42.656;23.374;2023-04-23T13:13:56;5.20;;;3.50;;
10461;SDS011;5278;42.656;23.374;2023-04-23T13:16:23;4.33;;;3.17;;
10461;SDS011;5278;42.656;23.374;2023-04-23T13:18:51;5.77;;;4.73;;
10461;SDS011;5278;42.656;23.374;2023-04-23T13:21:18;4.20;;;3.47;;
10461;SDS011;5278;42.656;23.374;2023-04-23T13:23:45;6.13;;;3.60;;
10461;SDS011;5278;42.656;23.374;2023-04-23T13:26:12;4.27;;;3.87;;
10461;SDS011;5278;42.656;23.374;2023-04-23T13:28:39;5.87;;;4.20;;
10461;SDS011;5278;42.656;23.374;2023-04-23T13:31:06;4.40;;;4.00;;
10461;SDS011;5278;42.656;23.374;2023-04-23T13:33:33;5.93;;;3.93;;
10461;SDS011;5278;42.656;23.374;2023-04-23T13:36:01;3.80;;;3.50;;
10461;SDS011;5278;42.656;23.374;2023-04-23T13:38:28;5.03;;;3.77;;
10461;SDS011;5278;42.656;23.374;2023-04-23T13:40:55;3.53;;;3.23;;
10461;SDS011;5278;42.656;23.374;2023-04-23T13:43:22;4.43;;;3.80;;
10461;SDS011;5278;42.656;23.374;2023-04-23T13:45:49;4.83;;;3.97;;
10461;SDS011;5278;42.656;23.374;2023-04-23T13:48:17;3.77;;;3.43;;
10461;SDS011;5278;42.656;23.374;2023-04-23T13:50:45;3.90;;;3.53;;
10461;SDS011;5278;42.656;23.374;2023-04-23T13:53:13;4.83;;;3.27;;
10461;SDS011;5278;42.656;23.374;2023-04-23T13:55:40;5.70;;;3.13;;
10461;SDS011;5278;42.656;23.374;2023-04-23T13:58:07;6.30;;;4.33;;
10461;SDS011;5278;42.656;23.374;2023-04-23T14:00:34;7.70;;;4.47;;
10461;SDS011;5278;42.656;23.374;2023-04-23T14:03:00;4.37;;;3.80;;
10461;SDS011;5278;42.656;23.374;2023-04-23T14:05:27;5.30;;;3.10;;
10461;SDS011;5278;42.656;23.374;2023-04-23T14:07:54;5.87;;;3.17;;
10461;SDS011;5278;42.656;23.374;2023-04-23T14:10:23;5.00;;;3.03;;
10461;SDS011;5278;42.656;23.374;2023-04-23T14:12:49;4.40;;;3.00;;
10461;SDS011;5278;42.656;23.374;2023-04-23T14:15:17;4.03;;;3.50;;
10461;SDS011;5278;42.656;23.374;2023-04-23T14:17:44;3.30;;;3.00;;
10461;SDS011;5278;42.656;23.374;2023-04-23T14:20:12;3.70;;;3.20;;
10461;SDS011;5278;42.656;23.374;2023-04-23T14:22:40;4.50;;;3.27;;
10461;SDS011;5278;42.656;23.374;2023-04-23T14:25:08;4.03;;;2.73;;
10461;SDS011;5278;42.656;23.374;2023-04-23T14:27:39;3.83;;;3.40;;
10461;SDS011;5278;42.656;23.374;2023-04-23T14:30:16;3.80;;;3.50;;
10461;SDS011;5278;42.656;23.374;2023-04-23T14:32:45;3.30;;;2.93;;
10461;SDS011;5278;42.656;23.374;2023-04-23T14:35:12;4.73;;;4.07;;
10461;SDS011;5278;42.656;23.374;2023-04-23T14:37:39;5.23;;;4.67;;
10461;SDS011;5278;42.656;23.374;2023-04-23T14:40:09;9.30;;;5.67;;
10461;SDS011;5278;42.656;23.374;2023-04-23T14:42:44;5.70;;;4.80;;
10461;SDS011;5278;42.656;23.374;2023-04-23T14:45:12;6.63;;;5.03;;
10461;SDS011;5278;42.656;23.374;2023-04-23T14:47:39;8.83;;;6.37;;
10461;SDS011;5278;42.656;23.374;2023-04-23T14:50:11;7.03;;;4.87;;
10461;SDS011;5278;42.656;23.374;2023-04-23T14:52:39;7.17;;;5.80;;